sensor_id;sensor_type;location;lat;lon;timestamp;temperature;humidity
25046;DHT22;13044;49.304;12.840;2022-09-09T00:01:59;14.40;99.90
25046;DHT22;13044;49.304;12.840;2022-09-09T00:04:34;14.40;99.90
25046;DHT22;13044;49.304;12.840;2022-09-09T00:12:40;14.40;99.90
25046;DHT22;13044;49.304;12.840;2022-09-09T00:15:23;14.40;99.90
25046;DHT22;13044;49.304;12.840;2022-09-09T00:18:14;14.40;99.90
25046;DHT22;13044;49.304;12.840;2022-09-09T00:20:51;14.40;99.90
25046;DHT22;13044;49.304;12.840;2022-09-09T00:23:29;14.40;99.90
25046;DHT22;13044;49.304;12.840;2022-09-09T00:26:13;14.40;99.90
25046;DHT22;13044;49.304;12.840;2022-09-09T00:31:28;14.40;99.90
25046;DHT22;13044;49.304;12.840;2022-09-09T00:34:03;14.40;99.90
25046;DHT22;13044;49.304;12.840;2022-09-09T00:36:52;14.40;99.90
25046;DHT22;13044;49.304;12.840;2022-09-09T00:39:39;14.40;99.90
25046;DHT22;13044;49.304;12.840;2022-09-09T00:42:16;14.40;99.90
25046;DHT22;13044;49.304;12.840;2022-09-09T00:47:51;14.30;99.90
25046;DHT22;13044;49.304;12.840;2022-09-09T00:53:38;14.20;99.90
25046;DHT22;13044;49.304;12.840;2022-09-09T00:56:25;14.10;99.90
25046;DHT22;13044;49.304;12.840;2022-09-09T00:59:27;14.10;99.90
25046;DHT22;13044;49.304;12.840;2022-09-09T01:02:11;14.00;99.90
25046;DHT22;13044;49.304;12.840;2022-09-09T01:04:43;14.00;99.90
25046;DHT22;13044;49.304;12.840;2022-09-09T01:07:17;14.00;99.90
25046;DHT22;13044;49.304;12.840;2022-09-09T01:09:52;14.00;99.90
25046;DHT22;13044;49.304;12.840;2022-09-09T01:12:41;14.10;99.90
25046;DHT22;13044;49.304;12.840;2022-09-09T01:18:08;14.10;99.90
25046;DHT22;13044;49.304;12.840;2022-09-09T01:29:01;13.90;99.90
25046;DHT22;13044;49.304;12.840;2022-09-09T01:31:42;13.80;99.90
25046;DHT22;13044;49.304;12.840;2022-09-09T01:34:18;13.80;99.90
25046;DHT22;13044;49.304;12.840;2022-09-09T01:36:56;13.80;99.90
25046;DHT22;13044;49.304;12.840;2022-09-09T01:39:26;13.60;99.90
25046;DHT22;13044;49.304;12.840;2022-09-09T01:41:53;13.60;99.90
25046;DHT22;13044;49.304;12.840;2022-09-09T01:44:22;13.50;99.90
25046;DHT22;13044;49.304;12.840;2022-09-09T01:46:49;13.60;99.90
25046;DHT22;13044;49.304;12.840;2022-09-09T01:49:17;13.70;99.90
25046;DHT22;13044;49.304;12.840;2022-09-09T01:51:47;13.70;99.90
25046;DHT22;13044;49.304;12.840;2022-09-09T01:54:17;13.70;99.90
25046;DHT22;13044;49.304;12.840;2022-09-09T02:05:00;13.60;99.90
25046;DHT22;13044;49.304;12.840;2022-09-09T02:07:51;13.60;99.90
25046;DHT22;13044;49.304;12.840;2022-09-09T02:10:29;13.70;99.90
25046;DHT22;13044;49.304;12.840;2022-09-09T02:13:08;13.70;99.90
25046;DHT22;13044;49.304;12.840;2022-09-09T02:18:10;13.80;99.90
25046;DHT22;13044;49.304;12.840;2022-09-09T02:20:39;13.80;99.90
25046;DHT22;13044;49.304;12.840;2022-09-09T02:23:08;13.70;99.90
25046;DHT22;13044;49.304;12.840;2022-09-09T02:25:39;13.70;99.90
25046;DHT22;13044;49.304;12.840;2022-09-09T02:28:08;13.60;99.90
25046;DHT22;13044;49.304;12.840;2022-09-09T02:30:38;13.50;99.90
25046;DHT22;13044;49.304;12.840;2022-09-09T02:33:07;13.50;99.90
25046;DHT22;13044;49.304;12.840;2022-09-09T02:35:37;13.40;99.90
25046;DHT22;13044;49.304;12.840;2022-09-09T02:38:08;13.40;99.90
25046;DHT22;13044;49.304;12.840;2022-09-09T02:40:37;13.40;99.90
25046;DHT22;13044;49.304;12.840;2022-09-09T02:43:04;13.40;99.90
25046;DHT22;13044;49.304;12.840;2022-09-09T02:45:44;13.40;99.90
25046;DHT22;13044;49.304;12.840;2022-09-09T02:48:30;13.40;99.90
25046;DHT22;13044;49.304;12.840;2022-09-09T02:51:18;13.40;99.90
25046;DHT22;13044;49.304;12.840;2022-09-09T02:54:26;13.40;99.90
25046;DHT22;13044;49.304;12.840;2022-09-09T02:57:14;13.40;99.90
25046;DHT22;13044;49.304;12.840;2022-09-09T02:59:52;13.40;99.90
25046;DHT22;13044;49.304;12.840;2022-09-09T03:02:19;13.40;99.90
25046;DHT22;13044;49.304;12.840;2022-09-09T03:04:46;13.30;99.90
25046;DHT22;13044;49.304;12.840;2022-09-09T03:07:20;13.20;99.90
25046;DHT22;13044;49.304;12.840;2022-09-09T03:09:47;13.20;99.90
25046;DHT22;13044;49.304;12.840;2022-09-09T03:12:15;13.20;99.90
25046;DHT22;13044;49.304;12.840;2022-09-09T03:14:42;13.20;99.90
25046;DHT22;13044;49.304;12.840;2022-09-09T03:17:11;13.20;99.90
25046;DHT22;13044;49.304;12.840;2022-09-09T03:19:38;13.20;99.90
25046;DHT22;13044;49.304;12.840;2022-09-09T03:22:07;13.20;99.90
25046;DHT22;13044;49.304;12.840;2022-09-09T03:24:36;13.30;99.90
25046;DHT22;13044;49.304;12.840;2022-09-09T03:27:03;13.30;99.90
25046;DHT22;13044;49.304;12.840;2022-09-09T03:29:30;13.30;99.90
25046;DHT22;13044;49.304;12.840;2022-09-09T03:31:56;13.20;99.90
25046;DHT22;13044;49.304;12.840;2022-09-09T03:34:23;13.20;99.90
25046;DHT22;13044;49.304;12.840;2022-09-09T03:36:50;13.20;99.90
25046;DHT22;13044;49.304;12.840;2022-09-09T03:39:17;13.20;99.90
25046;DHT22;13044;49.304;12.840;2022-09-09T03:41:43;13.20;99.90
25046;DHT22;13044;49.304;12.840;2022-09-09T03:44:11;13.10;99.90
25046;DHT22;13044;49.304;12.840;2022-09-09T03:46:38;13.10;99.90
25046;DHT22;13044;49.304;12.840;2022-09-09T03:49:05;13.10;99.90
25046;DHT22;13044;49.304;12.840;2022-09-09T03:51:32;13.10;99.90
25046;DHT22;13044;49.304;12.840;2022-09-09T03:54:03;13.00;99.90
25046;DHT22;13044;49.304;12.840;2022-09-09T03:56:31;13.10;99.90
25046;DHT22;13044;49.304;12.840;2022-09-09T03:58:58;13.10;99.90
25046;DHT22;13044;49.304;12.840;2022-09-09T04:01:25;13.00;99.90
25046;DHT22;13044;49.304;12.840;2022-09-09T04:03:51;13.00;99.90
25046;DHT22;13044;49.304;12.840;2022-09-09T04:06:19;12.90;99.90
25046;DHT22;13044;49.304;12.840;2022-09-09T04:08:47;12.90;99.90
25046;DHT22;13044;49.304;12.840;2022-09-09T04:11:15;12.80;99.90
25046;DHT22;13044;49.304;12.840;2022-09-09T04:13:42;12.70;99.90
25046;DHT22;13044;49.304;12.840;2022-09-09T04:16:11;12.70;99.90
25046;DHT22;13044;49.304;12.840;2022-09-09T04:18:39;12.70;99.90
25046;DHT22;13044;49.304;12.840;2022-09-09T04:21:06;12.70;99.90
25046;DHT22;13044;49.304;12.840;2022-09-09T04:23:34;12.70;99.90
25046;DHT22;13044;49.304;12.840;2022-09-09T04:26:03;12.80;99.90
25046;DHT22;13044;49.304;12.840;2022-09-09T04:28:32;12.90;99.90
25046;DHT22;13044;49.304;12.840;2022-09-09T04:31:09;12.90;99.90
25046;DHT22;13044;49.304;12.840;2022-09-09T04:34:02;12.80;99.90
25046;DHT22;13044;49.304;12.840;2022-09-09T04:36:34;12.70;99.90
25046;DHT22;13044;49.304;12.840;2022-09-09T04:39:01;12.60;99.90
25046;DHT22;13044;49.304;12.840;2022-09-09T04:41:29;12.60;99.90
25046;DHT22;13044;49.304;12.840;2022-09-09T04:43:57;12.60;99.90
25046;DHT22;13044;49.304;12.840;2022-09-09T04:46:26;12.60;99.90
25046;DHT22;13044;49.304;12.840;2022-09-09T04:48:53;12.60;99.90
25046;DHT22;13044;49.304;12.840;2022-09-09T04:51:20;12.60;99.90
25046;DHT22;13044;49.304;12.840;2022-09-09T04:53:47;12.70;99.90
25046;DHT22;13044;49.304;12.840;2022-09-09T04:56:16;12.70;99.90
25046;DHT22;13044;49.304;12.840;2022-09-09T04:58:43;12.70;99.90
25046;DHT22;13044;49.304;12.840;2022-09-09T05:01:13;12.60;99.90
25046;DHT22;13044;49.304;12.840;2022-09-09T05:03:44;12.60;99.90
25046;DHT22;13044;49.304;12.840;2022-09-09T05:06:15;12.60;99.90
25046;DHT22;13044;49.304;12.840;2022-09-09T05:08:44;12.70;99.90
25046;DHT22;13044;49.304;12.840;2022-09-09T05:11:21;12.80;99.90
25046;DHT22;13044;49.304;12.840;2022-09-09T05:13:51;12.80;99.90
25046;DHT22;13044;49.304;12.840;2022-09-09T05:16:19;12.70;99.90
25046;DHT22;13044;49.304;12.840;2022-09-09T05:18:47;12.70;99.90
25046;DHT22;13044;49.304;12.840;2022-09-09T05:21:18;12.60;99.90
25046;DHT22;13044;49.304;12.840;2022-09-09T05:23:46;12.70;99.90
25046;DHT22;13044;49.304;12.840;2022-09-09T05:26:15;12.70;99.90
25046;DHT22;13044;49.304;12.840;2022-09-09T05:28:44;12.80;99.90
25046;DHT22;13044;49.304;12.840;2022-09-09T05:31:13;12.80;99.90
25046;DHT22;13044;49.304;12.840;2022-09-09T05:33:42;12.90;99.90
25046;DHT22;13044;49.304;12.840;2022-09-09T05:36:14;12.90;99.90
25046;DHT22;13044;49.304;12.840;2022-09-09T05:38:41;12.90;99.90
25046;DHT22;13044;49.304;12.840;2022-09-09T05:41:08;12.90;99.90
25046;DHT22;13044;49.304;12.840;2022-09-09T05:43:38;13.00;99.90
25046;DHT22;13044;49.304;12.840;2022-09-09T05:46:06;13.10;99.90
25046;DHT22;13044;49.304;12.840;2022-09-09T05:48:46;13.10;99.90
25046;DHT22;13044;49.304;12.840;2022-09-09T05:51:15;13.20;99.90
25046;DHT22;13044;49.304;12.840;2022-09-09T05:53:47;13.20;99.90
25046;DHT22;13044;49.304;12.840;2022-09-09T05:56:20;13.30;99.90
25046;DHT22;13044;49.304;12.840;2022-09-09T05:58:49;13.30;99.90
25046;DHT22;13044;49.304;12.840;2022-09-09T06:01:21;13.40;99.90
25046;DHT22;13044;49.304;12.840;2022-09-09T06:03:53;13.40;99.90
25046;DHT22;13044;49.304;12.840;2022-09-09T06:06:25;13.50;99.90
25046;DHT22;13044;49.304;12.840;2022-09-09T06:08:54;13.60;99.90
25046;DHT22;13044;49.304;12.840;2022-09-09T06:11:25;13.70;99.90
25046;DHT22;13044;49.304;12.840;2022-09-09T06:13:53;13.80;99.90
25046;DHT22;13044;49.304;12.840;2022-09-09T06:16:23;13.90;99.90
25046;DHT22;13044;49.304;12.840;2022-09-09T06:18:52;14.10;99.90
25046;DHT22;13044;49.304;12.840;2022-09-09T06:21:31;14.10;99.90
25046;DHT22;13044;49.304;12.840;2022-09-09T06:24:00;14.20;99.90
25046;DHT22;13044;49.304;12.840;2022-09-09T06:26:30;14.30;99.90
25046;DHT22;13044;49.304;12.840;2022-09-09T06:28:58;14.40;99.90
25046;DHT22;13044;49.304;12.840;2022-09-09T06:31:27;14.60;99.90
25046;DHT22;13044;49.304;12.840;2022-09-09T06:33:58;14.70;99.90
25046;DHT22;13044;49.304;12.840;2022-09-09T06:36:30;14.90;99.90
25046;DHT22;13044;49.304;12.840;2022-09-09T06:38:58;15.00;99.90
25046;DHT22;13044;49.304;12.840;2022-09-09T06:41:27;15.10;99.90
25046;DHT22;13044;49.304;12.840;2022-09-09T06:43:55;15.20;99.90
25046;DHT22;13044;49.304;12.840;2022-09-09T06:46:25;15.20;99.90
25046;DHT22;13044;49.304;12.840;2022-09-09T06:48:55;15.30;99.90
25046;DHT22;13044;49.304;12.840;2022-09-09T06:51:30;15.40;99.90
25046;DHT22;13044;49.304;12.840;2022-09-09T06:53:59;15.50;99.90
25046;DHT22;13044;49.304;12.840;2022-09-09T06:56:31;15.60;99.90
25046;DHT22;13044;49.304;12.840;2022-09-09T06:59:01;15.70;99.90
25046;DHT22;13044;49.304;12.840;2022-09-09T07:01:32;15.80;99.90
25046;DHT22;13044;49.304;12.840;2022-09-09T07:04:01;16.00;99.90
25046;DHT22;13044;49.304;12.840;2022-09-09T07:06:35;16.10;99.90
25046;DHT22;13044;49.304;12.840;2022-09-09T07:09:08;16.20;99.90
25046;DHT22;13044;49.304;12.840;2022-09-09T07:11:48;16.50;99.90
25046;DHT22;13044;49.304;12.840;2022-09-09T07:14:16;16.60;99.90
25046;DHT22;13044;49.304;12.840;2022-09-09T07:16:44;16.70;99.90
25046;DHT22;13044;49.304;12.840;2022-09-09T07:19:12;16.80;99.90
25046;DHT22;13044;49.304;12.840;2022-09-09T07:21:40;16.80;99.90
25046;DHT22;13044;49.304;12.840;2022-09-09T07:24:08;16.70;99.90
25046;DHT22;13044;49.304;12.840;2022-09-09T07:26:38;16.60;99.90
25046;DHT22;13044;49.304;12.840;2022-09-09T07:29:05;16.50;99.90
25046;DHT22;13044;49.304;12.840;2022-09-09T07:31:35;16.50;99.90
25046;DHT22;13044;49.304;12.840;2022-09-09T07:34:04;16.50;99.90
25046;DHT22;13044;49.304;12.840;2022-09-09T07:36:37;16.60;99.90
25046;DHT22;13044;49.304;12.840;2022-09-09T07:39:08;16.70;99.90
25046;DHT22;13044;49.304;12.840;2022-09-09T07:41:38;16.60;99.90
25046;DHT22;13044;49.304;12.840;2022-09-09T07:44:17;16.60;99.90
25046;DHT22;13044;49.304;12.840;2022-09-09T07:46:47;16.70;99.90
25046;DHT22;13044;49.304;12.840;2022-09-09T07:49:15;16.80;99.90
25046;DHT22;13044;49.304;12.840;2022-09-09T07:51:44;16.70;99.90
25046;DHT22;13044;49.304;12.840;2022-09-09T07:54:13;16.70;99.90
25046;DHT22;13044;49.304;12.840;2022-09-09T07:56:42;16.70;99.90
25046;DHT22;13044;49.304;12.840;2022-09-09T07:59:09;16.70;99.90
25046;DHT22;13044;49.304;12.840;2022-09-09T08:01:42;16.70;99.90
25046;DHT22;13044;49.304;12.840;2022-09-09T08:04:18;16.70;99.90
25046;DHT22;13044;49.304;12.840;2022-09-09T08:06:48;16.80;99.90
25046;DHT22;13044;49.304;12.840;2022-09-09T08:09:21;16.90;99.90
25046;DHT22;13044;49.304;12.840;2022-09-09T08:11:51;17.00;99.90
25046;DHT22;13044;49.304;12.840;2022-09-09T08:14:18;17.10;99.90
25046;DHT22;13044;49.304;12.840;2022-09-09T08:16:47;17.20;99.90
25046;DHT22;13044;49.304;12.840;2022-09-09T08:19:14;17.30;99.90
25046;DHT22;13044;49.304;12.840;2022-09-09T08:21:42;17.30;99.90
25046;DHT22;13044;49.304;12.840;2022-09-09T08:24:11;17.50;99.90
25046;DHT22;13044;49.304;12.840;2022-09-09T08:26:43;17.60;99.90
25046;DHT22;13044;49.304;12.840;2022-09-09T08:29:11;17.80;99.90
25046;DHT22;13044;49.304;12.840;2022-09-09T08:31:42;18.10;99.90
25046;DHT22;13044;49.304;12.840;2022-09-09T08:34:11;18.20;99.90
25046;DHT22;13044;49.304;12.840;2022-09-09T08:36:41;18.30;99.90
25046;DHT22;13044;49.304;12.840;2022-09-09T08:39:11;18.40;99.90
25046;DHT22;13044;49.304;12.840;2022-09-09T08:55:48;18.70;99.90
25046;DHT22;13044;49.304;12.840;2022-09-09T09:07:03;19.50;99.90
25046;DHT22;13044;49.304;12.840;2022-09-09T09:12:20;19.70;99.90
25046;DHT22;13044;49.304;12.840;2022-09-09T09:14:49;19.80;99.90
25046;DHT22;13044;49.304;12.840;2022-09-09T09:17:19;19.90;99.90
25046;DHT22;13044;49.304;12.840;2022-09-09T09:19:48;19.90;99.90
25046;DHT22;13044;49.304;12.840;2022-09-09T09:22:39;20.00;99.90
25046;DHT22;13044;49.304;12.840;2022-09-09T09:25:27;20.10;99.90
25046;DHT22;13044;49.304;12.840;2022-09-09T09:28:10;20.00;99.90
25046;DHT22;13044;49.304;12.840;2022-09-09T09:30:52;19.90;99.90
25046;DHT22;13044;49.304;12.840;2022-09-09T09:36:00;19.70;99.90
25046;DHT22;13044;49.304;12.840;2022-09-09T09:38:28;19.50;99.90
25046;DHT22;13044;49.304;12.840;2022-09-09T09:41:15;19.40;99.90
25046;DHT22;13044;49.304;12.840;2022-09-09T09:43:53;19.40;99.90
25046;DHT22;13044;49.304;12.840;2022-09-09T09:46:23;19.50;99.90
25046;DHT22;13044;49.304;12.840;2022-09-09T09:49:03;19.60;99.90
25046;DHT22;13044;49.304;12.840;2022-09-09T09:51:35;19.70;99.90
25046;DHT22;13044;49.304;12.840;2022-09-09T09:54:22;19.60;99.90
25046;DHT22;13044;49.304;12.840;2022-09-09T09:56:55;19.50;99.90
25046;DHT22;13044;49.304;12.840;2022-09-09T09:59:32;19.40;99.90
25046;DHT22;13044;49.304;12.840;2022-09-09T10:02:13;19.40;99.90
25046;DHT22;13044;49.304;12.840;2022-09-09T10:04:42;19.40;99.90
25046;DHT22;13044;49.304;12.840;2022-09-09T10:07:18;19.40;99.90
25046;DHT22;13044;49.304;12.840;2022-09-09T10:09:52;19.40;99.90
25046;DHT22;13044;49.304;12.840;2022-09-09T10:35:46;19.00;99.90
25046;DHT22;13044;49.304;12.840;2022-09-09T10:38:45;19.00;99.90
25046;DHT22;13044;49.304;12.840;2022-09-09T10:44:17;18.80;99.90
25046;DHT22;13044;49.304;12.840;2022-09-09T10:53:02;18.50;99.90
25046;DHT22;13044;49.304;12.840;2022-09-09T10:55:59;18.40;99.90
25046;DHT22;13044;49.304;12.840;2022-09-09T10:58:35;18.40;99.90
25046;DHT22;13044;49.304;12.840;2022-09-09T11:01:42;18.30;99.90
25046;DHT22;13044;49.304;12.840;2022-09-09T11:04:19;18.40;99.90
25046;DHT22;13044;49.304;12.840;2022-09-09T11:06:54;18.60;99.90
25046;DHT22;13044;49.304;12.840;2022-09-09T11:09:25;18.70;99.90
25046;DHT22;13044;49.304;12.840;2022-09-09T11:11:57;18.80;99.90
25046;DHT22;13044;49.304;12.840;2022-09-09T11:14:47;18.90;99.90
25046;DHT22;13044;49.304;12.840;2022-09-09T11:17:24;18.90;99.90
25046;DHT22;13044;49.304;12.840;2022-09-09T11:19:56;19.10;99.90
25046;DHT22;13044;49.304;12.840;2022-09-09T11:22:28;19.20;99.90
25046;DHT22;13044;49.304;12.840;2022-09-09T11:33:41;19.40;99.90
25046;DHT22;13044;49.304;12.840;2022-09-09T11:36:56;19.40;99.90
25046;DHT22;13044;49.304;12.840;2022-09-09T11:39:58;19.40;99.90
25046;DHT22;13044;49.304;12.840;2022-09-09T11:42:36;19.20;99.90
25046;DHT22;13044;49.304;12.840;2022-09-09T11:45:23;19.20;99.90
25046;DHT22;13044;49.304;12.840;2022-09-09T11:47:57;19.20;99.90
25046;DHT22;13044;49.304;12.840;2022-09-09T11:53:04;19.40;99.90
25046;DHT22;13044;49.304;12.840;2022-09-09T11:55:33;19.50;99.90
25046;DHT22;13044;49.304;12.840;2022-09-09T11:58:22;19.50;99.90
25046;DHT22;13044;49.304;12.840;2022-09-09T12:00:49;19.70;99.90
25046;DHT22;13044;49.304;12.840;2022-09-09T12:03:34;19.70;99.90
25046;DHT22;13044;49.304;12.840;2022-09-09T12:06:30;19.80;99.90
25046;DHT22;13044;49.304;12.840;2022-09-09T12:09:07;19.90;99.90
25046;DHT22;13044;49.304;12.840;2022-09-09T12:11:37;20.00;99.90
25046;DHT22;13044;49.304;12.840;2022-09-09T12:14:04;20.00;99.90
25046;DHT22;13044;49.304;12.840;2022-09-09T12:16:36;20.00;99.90
25046;DHT22;13044;49.304;12.840;2022-09-09T12:19:20;20.10;99.90
25046;DHT22;13044;49.304;12.840;2022-09-09T12:22:16;20.20;99.90
25046;DHT22;13044;49.304;12.840;2022-09-09T12:31:06;20.20;99.90
25046;DHT22;13044;49.304;12.840;2022-09-09T12:33:39;20.20;99.90
25046;DHT22;13044;49.304;12.840;2022-09-09T12:36:17;20.30;99.90
25046;DHT22;13044;49.304;12.840;2022-09-09T12:38:46;20.30;99.90
25046;DHT22;13044;49.304;12.840;2022-09-09T12:41:24;20.30;99.90
25046;DHT22;13044;49.304;12.840;2022-09-09T12:44:06;20.20;99.90
25046;DHT22;13044;49.304;12.840;2022-09-09T12:46:36;20.40;99.90
25046;DHT22;13044;49.304;12.840;2022-09-09T12:49:31;20.40;99.90
25046;DHT22;13044;49.304;12.840;2022-09-09T12:52:04;20.50;99.90
25046;DHT22;13044;49.304;12.840;2022-09-09T12:54:35;20.50;99.90
25046;DHT22;13044;49.304;12.840;2022-09-09T12:57:04;20.60;99.90
25046;DHT22;13044;49.304;12.840;2022-09-09T12:59:39;20.70;99.90
25046;DHT22;13044;49.304;12.840;2022-09-09T13:04:50;20.80;99.90
25046;DHT22;13044;49.304;12.840;2022-09-09T13:07:18;20.80;99.90
25046;DHT22;13044;49.304;12.840;2022-09-09T13:09:47;20.90;99.90
25046;DHT22;13044;49.304;12.840;2022-09-09T13:12:22;21.00;99.90
25046;DHT22;13044;49.304;12.840;2022-09-09T13:14:52;21.00;99.90
25046;DHT22;13044;49.304;12.840;2022-09-09T13:17:23;21.00;99.90
25046;DHT22;13044;49.304;12.840;2022-09-09T13:19:52;21.10;99.90
25046;DHT22;13044;49.304;12.840;2022-09-09T13:22:33;21.20;99.90
25046;DHT22;13044;49.304;12.840;2022-09-09T13:25:06;21.20;99.90
25046;DHT22;13044;49.304;12.840;2022-09-09T13:27:57;21.10;99.90
25046;DHT22;13044;49.304;12.840;2022-09-09T13:30:36;21.10;99.90
25046;DHT22;13044;49.304;12.840;2022-09-09T13:36:05;21.10;99.90
25046;DHT22;13044;49.304;12.840;2022-09-09T13:39:13;21.10;99.90
25046;DHT22;13044;49.304;12.840;2022-09-09T13:41:36;21.30;99.90
25046;DHT22;13044;49.304;12.840;2022-09-09T13:44:21;21.50;99.90
25046;DHT22;13044;49.304;12.840;2022-09-09T13:47:05;21.50;99.90
25046;DHT22;13044;49.304;12.840;2022-09-09T13:49:43;21.50;99.90
25046;DHT22;13044;49.304;12.840;2022-09-09T13:52:15;21.40;99.90
25046;DHT22;13044;49.304;12.840;2022-09-09T13:54:50;21.20;99.90
25046;DHT22;13044;49.304;12.840;2022-09-09T13:57:22;21.10;99.90
25046;DHT22;13044;49.304;12.840;2022-09-09T13:59:53;21.00;99.90
25046;DHT22;13044;49.304;12.840;2022-09-09T14:02:36;21.00;99.90
25046;DHT22;13044;49.304;12.840;2022-09-09T14:05:05;21.10;99.90
25046;DHT22;13044;49.304;12.840;2022-09-09T14:07:32;21.20;99.90
25046;DHT22;13044;49.304;12.840;2022-09-09T14:09:59;21.20;99.90
25046;DHT22;13044;49.304;12.840;2022-09-09T14:12:26;21.10;99.90
25046;DHT22;13044;49.304;12.840;2022-09-09T14:14:53;21.00;99.90
25046;DHT22;13044;49.304;12.840;2022-09-09T14:17:20;21.10;99.90
25046;DHT22;13044;49.304;12.840;2022-09-09T14:19:48;21.10;99.90
25046;DHT22;13044;49.304;12.840;2022-09-09T14:22:15;21.10;99.90
25046;DHT22;13044;49.304;12.840;2022-09-09T14:24:42;21.00;99.90
25046;DHT22;13044;49.304;12.840;2022-09-09T14:27:09;21.00;99.90
25046;DHT22;13044;49.304;12.840;2022-09-09T14:29:36;21.00;99.90
25046;DHT22;13044;49.304;12.840;2022-09-09T14:32:03;21.10;99.90
25046;DHT22;13044;49.304;12.840;2022-09-09T14:34:32;21.00;99.90
25046;DHT22;13044;49.304;12.840;2022-09-09T14:36:59;20.90;99.90
25046;DHT22;13044;49.304;12.840;2022-09-09T14:39:26;21.00;99.90
25046;DHT22;13044;49.304;12.840;2022-09-09T14:41:53;21.10;99.90
25046;DHT22;13044;49.304;12.840;2022-09-09T14:44:20;21.20;99.90
25046;DHT22;13044;49.304;12.840;2022-09-09T14:46:47;21.20;99.90
25046;DHT22;13044;49.304;12.840;2022-09-09T14:49:16;21.10;99.90
25046;DHT22;13044;49.304;12.840;2022-09-09T14:51:43;21.20;99.90
25046;DHT22;13044;49.304;12.840;2022-09-09T14:54:10;21.20;99.90
25046;DHT22;13044;49.304;12.840;2022-09-09T14:56:37;21.20;99.90
25046;DHT22;13044;49.304;12.840;2022-09-09T14:59:04;21.10;99.90
25046;DHT22;13044;49.304;12.840;2022-09-09T15:01:31;21.00;99.90
25046;DHT22;13044;49.304;12.840;2022-09-09T15:04:03;21.00;99.90
25046;DHT22;13044;49.304;12.840;2022-09-09T15:06:33;20.80;99.90
25046;DHT22;13044;49.304;12.840;2022-09-09T15:09:03;20.70;99.90
25046;DHT22;13044;49.304;12.840;2022-09-09T15:11:33;20.80;99.90
25046;DHT22;13044;49.304;12.840;2022-09-09T15:14:05;20.70;99.90
25046;DHT22;13044;49.304;12.840;2022-09-09T15:16:33;20.60;99.90
25046;DHT22;13044;49.304;12.840;2022-09-09T15:19:00;20.50;99.90
25046;DHT22;13044;49.304;12.840;2022-09-09T15:21:33;20.40;99.90
25046;DHT22;13044;49.304;12.840;2022-09-09T15:24:01;20.20;99.90
25046;DHT22;13044;49.304;12.840;2022-09-09T15:26:29;20.20;99.90
25046;DHT22;13044;49.304;12.840;2022-09-09T15:28:56;20.10;99.90
25046;DHT22;13044;49.304;12.840;2022-09-09T15:31:30;19.90;99.90
25046;DHT22;13044;49.304;12.840;2022-09-09T15:34:02;19.90;99.90
25046;DHT22;13044;49.304;12.840;2022-09-09T15:36:34;19.90;99.90
25046;DHT22;13044;49.304;12.840;2022-09-09T15:39:04;19.90;99.90
25046;DHT22;13044;49.304;12.840;2022-09-09T15:41:33;19.90;99.90
25046;DHT22;13044;49.304;12.840;2022-09-09T15:44:00;19.80;99.90
25046;DHT22;13044;49.304;12.840;2022-09-09T15:46:39;19.80;99.90
25046;DHT22;13044;49.304;12.840;2022-09-09T15:49:08;19.70;99.90
25046;DHT22;13044;49.304;12.840;2022-09-09T15:51:47;19.70;99.90
25046;DHT22;13044;49.304;12.840;2022-09-09T15:54:19;19.70;99.90
25046;DHT22;13044;49.304;12.840;2022-09-09T15:56:52;19.70;99.90
25046;DHT22;13044;49.304;12.840;2022-09-09T15:59:30;19.60;99.90
25046;DHT22;13044;49.304;12.840;2022-09-09T16:01:58;19.60;99.90
25046;DHT22;13044;49.304;12.840;2022-09-09T16:04:27;19.50;99.90
25046;DHT22;13044;49.304;12.840;2022-09-09T16:06:57;19.50;99.90
25046;DHT22;13044;49.304;12.840;2022-09-09T16:09:27;19.50;99.90
25046;DHT22;13044;49.304;12.840;2022-09-09T16:11:59;19.40;99.90
25046;DHT22;13044;49.304;12.840;2022-09-09T16:14:28;19.30;99.90
25046;DHT22;13044;49.304;12.840;2022-09-09T16:16:55;19.30;99.90
25046;DHT22;13044;49.304;12.840;2022-09-09T16:19:23;19.20;99.90
25046;DHT22;13044;49.304;12.840;2022-09-09T16:21:49;19.20;99.90
25046;DHT22;13044;49.304;12.840;2022-09-09T16:24:18;19.20;99.90
25046;DHT22;13044;49.304;12.840;2022-09-09T16:26:49;19.20;99.90
25046;DHT22;13044;49.304;12.840;2022-09-09T16:29:18;19.10;99.90
25046;DHT22;13044;49.304;12.840;2022-09-09T16:31:46;19.10;99.90
25046;DHT22;13044;49.304;12.840;2022-09-09T16:34:14;19.10;99.90
25046;DHT22;13044;49.304;12.840;2022-09-09T16:36:42;19.10;99.90
25046;DHT22;13044;49.304;12.840;2022-09-09T16:39:13;19.00;99.90
25046;DHT22;13044;49.304;12.840;2022-09-09T16:41:44;19.00;99.90
25046;DHT22;13044;49.304;12.840;2022-09-09T16:44:13;18.90;99.90
25046;DHT22;13044;49.304;12.840;2022-09-09T16:46:43;18.90;99.90
25046;DHT22;13044;49.304;12.840;2022-09-09T16:49:13;18.90;99.90
25046;DHT22;13044;49.304;12.840;2022-09-09T16:51:49;18.80;99.90
25046;DHT22;13044;49.304;12.840;2022-09-09T16:54:19;18.80;99.90
25046;DHT22;13044;49.304;12.840;2022-09-09T16:56:47;18.80;99.90
25046;DHT22;13044;49.304;12.840;2022-09-09T16:59:19;18.70;99.90
25046;DHT22;13044;49.304;12.840;2022-09-09T17:01:49;18.60;99.90
25046;DHT22;13044;49.304;12.840;2022-09-09T17:04:20;18.60;99.90
25046;DHT22;13044;49.304;12.840;2022-09-09T17:06:50;18.50;99.90
25046;DHT22;13044;49.304;12.840;2022-09-09T17:09:19;18.50;99.90
25046;DHT22;13044;49.304;12.840;2022-09-09T17:11:48;18.50;99.90
25046;DHT22;13044;49.304;12.840;2022-09-09T17:14:17;18.40;99.90
25046;DHT22;13044;49.304;12.840;2022-09-09T17:16:45;18.40;99.90
25046;DHT22;13044;49.304;12.840;2022-09-09T17:19:13;18.30;99.90
25046;DHT22;13044;49.304;12.840;2022-09-09T17:21:40;18.20;99.90
25046;DHT22;13044;49.304;12.840;2022-09-09T17:24:27;18.20;99.90
25046;DHT22;13044;49.304;12.840;2022-09-09T17:26:56;18.20;99.90
25046;DHT22;13044;49.304;12.840;2022-09-09T17:29:23;18.10;99.90
25046;DHT22;13044;49.304;12.840;2022-09-09T17:31:51;18.10;99.90
25046;DHT22;13044;49.304;12.840;2022-09-09T17:34:18;18.10;99.90
25046;DHT22;13044;49.304;12.840;2022-09-09T17:36:44;18.10;99.90
25046;DHT22;13044;49.304;12.840;2022-09-09T17:39:11;18.10;99.90
25046;DHT22;13044;49.304;12.840;2022-09-09T17:41:39;18.00;99.90
25046;DHT22;13044;49.304;12.840;2022-09-09T17:44:07;18.10;99.90
25046;DHT22;13044;49.304;12.840;2022-09-09T17:46:38;18.10;99.90
25046;DHT22;13044;49.304;12.840;2022-09-09T17:49:12;18.10;99.90